createdAt,value
2023-03-20T00:00:52.117Z,99.50
2023-03-20T00:04:20.153Z,94.50
2023-03-20T00:07:47.898Z,89.10
2023-03-20T00:11:28.824Z,93.50
2023-03-20T00:14:56.021Z,94.20
2023-03-20T00:18:25.761Z,91.70
2023-03-20T00:25:21.397Z,89.10
2023-03-20T00:28:50.758Z,92.60
2023-03-20T00:32:18.234Z,91.50
2023-03-20T00:35:45.251Z,83.40
2023-03-20T00:39:14.660Z,84.20
2023-03-20T00:42:41.854Z,71.20
2023-03-20T00:46:13.518Z,68.40
2023-03-20T00:49:40.600Z,75.70
2023-03-20T00:53:07.678Z,71.10
2023-03-20T00:56:41.971Z,67.30
2023-03-20T01:00:20.208Z,61.60
2023-03-20T01:03:47.303Z,60.10
2023-03-20T01:07:18.716Z,57.30
2023-03-20T01:10:47.817Z,54.10
2023-03-20T01:14:18.062Z,57.20
2023-03-20T01:17:45.208Z,54.60
2023-03-20T01:21:13.969Z,57.10
2023-03-20T01:24:41.269Z,56.60
2023-03-20T01:28:15.673Z,56.80
2023-03-20T01:31:43.315Z,54.50
2023-03-20T01:35:13.160Z,55.60
2023-03-20T01:42:08.716Z,52.90
2023-03-20T01:45:37.905Z,54.80
2023-03-20T01:49:30.722Z,54.20
2023-03-20T01:53:07.929Z,56.40
2023-03-20T01:56:42.401Z,57.20
2023-03-20T02:00:16.958Z,55.80
2023-03-20T02:03:49.088Z,55.70
2023-03-20T02:07:34.731Z,54.60
2023-03-20T02:11:05.568Z,58.50
2023-03-20T02:14:33.876Z,55.50
2023-03-20T02:18:08.161Z,56.70
2023-03-20T02:21:59.963Z,57.40
2023-03-20T02:25:58.280Z,56.10
2023-03-20T02:29:53.715Z,56.80
2023-03-20T02:34:07.895Z,58.40
2023-03-20T02:37:51.966Z,58.30
2023-03-20T02:41:28.670Z,57.80
2023-03-20T02:45:04.398Z,57.80
2023-03-20T02:48:41.089Z,56.70
2023-03-20T02:52:18.028Z,57.60
2023-03-20T02:55:49.588Z,54.50
2023-03-20T02:59:26.710Z,54.50
2023-03-20T03:02:59.373Z,56.60
2023-03-20T03:06:29.731Z,55.40
2023-03-20T03:10:01.634Z,56.30
2023-03-20T03:13:32.616Z,50.50
2023-03-20T03:17:04.322Z,49.80
2023-03-20T03:20:34.489Z,53.40
2023-03-20T03:24:01.515Z,48.90
2023-03-20T03:27:33.959Z,48.10
2023-03-20T03:31:02.131Z,48.10
2023-03-20T03:34:29.673Z,46.20
2023-03-20T03:38:03.874Z,46.50
2023-03-20T03:41:37.479Z,44.00
2023-03-20T03:45:08.120Z,43.70
2023-03-20T03:48:39.770Z,41.70
2023-03-20T03:52:11.497Z,42.90
2023-03-20T03:55:43.736Z,39.40
2023-03-20T03:59:18.560Z,41.90
2023-03-20T04:02:48.117Z,41.90
2023-03-20T04:06:16.519Z,40.70
2023-03-20T04:09:43.732Z,43.70
2023-03-20T04:13:11.871Z,44.50
2023-03-20T04:16:39.065Z,45.80
2023-03-20T04:20:08.302Z,48.00
2023-03-20T04:23:35.363Z,45.60
2023-03-20T04:27:02.904Z,47.00
2023-03-20T04:30:30.229Z,47.70
2023-03-20T04:34:16.674Z,48.10
2023-03-20T04:38:05.910Z,46.40
2023-03-20T04:41:35.346Z,47.40
2023-03-20T04:45:02.880Z,44.40
2023-03-20T04:48:31.448Z,49.10
2023-03-20T04:51:59.147Z,44.80
2023-03-20T04:55:38.341Z,47.70
2023-03-20T04:59:05.728Z,49.10
2023-03-20T05:02:32.820Z,47.30
2023-03-20T05:06:00.442Z,47.20
2023-03-20T05:09:28.242Z,45.40
2023-03-20T05:12:56.332Z,47.60
2023-03-20T05:16:43.699Z,46.50
2023-03-20T05:20:40.319Z,48.60
2023-03-20T05:24:23.035Z,48.40
2023-03-20T05:28:05.252Z,48.90
2023-03-20T05:32:09.049Z,49.90
2023-03-20T05:35:54.785Z,50.10
2023-03-20T05:39:33.341Z,51.10
2023-03-20T05:43:39.160Z,49.90
2023-03-20T05:47:42.002Z,51.90
2023-03-20T05:51:28.475Z,53.80
2023-03-20T05:55:07.302Z,53.20
2023-03-20T05:58:57.474Z,53.10
2023-03-20T06:02:34.323Z,52.70
2023-03-20T06:06:08.356Z,54.60
2023-03-20T06:09:36.024Z,54.10
2023-03-20T06:13:06.296Z,50.40
2023-03-20T06:16:33.547Z,52.40
2023-03-20T06:20:01.278Z,54.20
2023-03-20T06:23:30.169Z,52.70
2023-03-20T06:26:57.729Z,53.00
2023-03-20T06:30:25.509Z,52.20
2023-03-20T06:33:54.068Z,53.50
2023-03-20T06:37:22.489Z,50.80
2023-03-20T06:40:50.076Z,51.10
2023-03-20T06:44:18.303Z,49.00
2023-03-20T06:48:12.438Z,48.60
2023-03-20T06:51:39.978Z,50.40
2023-03-20T06:55:09.905Z,46.80
2023-03-20T06:58:36.903Z,51.20
2023-03-20T07:02:03.965Z,54.60
2023-03-20T07:05:31.220Z,54.40
2023-03-20T07:08:58.832Z,55.20
2023-03-20T07:12:28.771Z,53.00
2023-03-20T07:16:04.510Z,51.60
2023-03-20T07:19:38.107Z,52.80
2023-03-20T07:23:06.411Z,50.60
2023-03-20T07:26:35.832Z,49.80
2023-03-20T07:30:03.343Z,47.50
2023-03-20T07:33:31.025Z,47.30
2023-03-20T07:36:58.329Z,48.40
2023-03-20T07:40:26.005Z,45.40
2023-03-20T07:43:56.357Z,46.80
2023-03-20T07:47:43.451Z,44.80
2023-03-20T07:51:10.824Z,44.70
2023-03-20T07:54:38.127Z,42.30
2023-03-20T07:58:05.519Z,40.30
2023-03-20T08:01:34.216Z,40.00
2023-03-20T08:05:01.324Z,36.80
2023-03-20T08:08:28.565Z,35.40
2023-03-20T08:11:55.727Z,37.70
2023-03-20T08:15:22.908Z,35.30
2023-03-20T08:18:50.860Z,33.90
2023-03-20T08:22:18.657Z,30.30
2023-03-20T08:25:50.019Z,29.90
2023-03-20T08:29:19.388Z,28.60
2023-03-20T08:32:46.574Z,29.40
2023-03-20T08:36:15.242Z,27.50
2023-03-20T08:39:42.399Z,26.90
2023-03-20T08:43:09.950Z,26.50
2023-03-20T08:46:37.009Z,22.50
2023-03-20T08:50:04.746Z,24.80
2023-03-20T08:53:31.797Z,22.70
2023-03-20T08:56:58.780Z,21.10
2023-03-20T09:00:27.674Z,21.30
2023-03-20T09:03:54.840Z,21.40
2023-03-20T09:07:22.694Z,19.20
2023-03-20T09:10:53.310Z,20.30
2023-03-20T09:14:20.750Z,19.10
2023-03-20T09:17:47.732Z,19.00
2023-03-20T09:21:15.013Z,19.20
2023-03-20T09:24:42.314Z,17.50
2023-03-20T09:28:09.355Z,18.60
2023-03-20T09:31:36.625Z,17.50
2023-03-20T09:35:04.828Z,17.60
2023-03-20T09:38:31.879Z,17.00
2023-03-20T09:42:09.800Z,18.70
2023-03-20T09:45:46.638Z,17.50
2023-03-20T09:49:23.396Z,17.80
2023-03-20T09:52:59.072Z,17.30
2023-03-20T09:56:29.085Z,17.70
2023-03-20T10:00:00.526Z,16.80
2023-03-20T10:03:34.021Z,17.30
2023-03-20T10:07:05.035Z,17.50
2023-03-20T10:10:43.547Z,17.10
2023-03-20T10:14:24.554Z,17.20
2023-03-20T10:18:02.743Z,16.70
2023-03-20T10:21:39.001Z,17.20
2023-03-20T10:25:19.076Z,17.30
2023-03-20T10:28:53.801Z,17.70
2023-03-20T10:32:27.858Z,17.50
2023-03-20T10:36:07.703Z,17.40
2023-03-20T10:39:50.458Z,17.60
2023-03-20T10:43:23.794Z,17.40
2023-03-20T10:46:57.905Z,17.80
2023-03-20T10:50:29.977Z,18.80
2023-03-20T10:54:01.434Z,23.10
2023-03-20T10:57:33.068Z,26.10
2023-03-20T11:01:01.349Z,22.10
2023-03-20T11:04:29.969Z,24.50
2023-03-20T11:08:06.844Z,26.70
2023-03-20T11:11:40.039Z,28.10
2023-03-20T11:15:22.221Z,32.60
2023-03-20T11:18:50.669Z,34.50
2023-03-20T11:22:27.252Z,29.70
2023-03-20T11:25:58.663Z,28.70
2023-03-20T11:29:31.286Z,27.10
2023-03-20T11:33:02.087Z,25.30
2023-03-20T11:36:33.060Z,19.00
2023-03-20T11:40:02.459Z,19.30
2023-03-20T11:43:38.668Z,17.50
2023-03-20T11:47:12.996Z,16.10
2023-03-20T11:50:44.305Z,15.00
2023-03-20T11:54:20.046Z,14.20
2023-03-20T11:57:47.516Z,15.50
2023-03-20T12:01:15.136Z,16.40
2023-03-20T12:04:44.159Z,15.60
2023-03-20T12:08:18.360Z,15.20
2023-03-20T12:11:50.702Z,15.10
2023-03-20T12:15:24.272Z,14.70
2023-03-20T12:18:56.547Z,14.50
2023-03-20T12:22:29.856Z,13.90
2023-03-20T12:26:02.226Z,9.50
2023-03-20T12:29:38.303Z,10.20
2023-03-20T12:33:09.796Z,9.90
2023-03-20T12:36:39.517Z,9.20
2023-03-20T12:40:14.308Z,6.70
2023-03-20T12:43:58.826Z,6.90
2023-03-20T12:47:42.303Z,7.60
2023-03-20T12:51:16.676Z,7.70
2023-03-20T12:55:04.442Z,7.40
2023-03-20T12:58:42.295Z,7.80
2023-03-20T13:02:24.550Z,7.40
2023-03-20T13:05:59.373Z,8.00
2023-03-20T13:09:57.281Z,7.00
2023-03-20T13:13:32.321Z,8.80
2023-03-20T13:17:07.211Z,9.00
2023-03-20T13:20:36.285Z,9.70
2023-03-20T13:24:15.758Z,10.00
2023-03-20T13:27:48.829Z,9.60
2023-03-20T13:31:27.468Z,10.40
2023-03-20T13:35:17.983Z,9.40
2023-03-20T13:38:48.614Z,11.00
2023-03-20T13:42:19.788Z,10.30
2023-03-20T13:45:47.580Z,10.20
2023-03-20T13:49:22.924Z,11.00
2023-03-20T13:52:57.814Z,9.90
2023-03-20T13:56:33.446Z,11.00
2023-03-20T14:00:09.513Z,10.30
2023-03-20T14:03:38.986Z,10.30
2023-03-20T14:07:33.798Z,9.90
2023-03-20T14:11:13.802Z,9.90
2023-03-20T14:14:51.088Z,9.60
2023-03-20T14:18:19.890Z,10.90
2023-03-20T14:21:52.431Z,9.30
2023-03-20T14:25:21.881Z,10.80
2023-03-20T14:28:58.210Z,10.40
2023-03-20T14:32:36.521Z,9.20
2023-03-20T14:36:29.615Z,9.60
2023-03-20T14:40:05.064Z,10.90
2023-03-20T14:43:57.045Z,11.60
2023-03-20T14:47:35.545Z,11.80
2023-03-20T14:51:23.703Z,13.10
2023-03-20T14:54:56.608Z,15.30
2023-03-20T14:58:51.092Z,17.40
2023-03-20T15:02:28.894Z,17.00
2023-03-20T15:06:02.618Z,17.30
2023-03-20T15:09:36.431Z,20.30
2023-03-20T15:13:11.104Z,50.70
2023-03-20T15:16:39.451Z,59.00
2023-03-20T15:20:15.342Z,69.20
2023-03-20T15:23:47.477Z,88.70
2023-03-20T15:27:15.867Z,67.40
2023-03-20T15:30:45.062Z,105.20
2023-03-20T15:34:19.688Z,156.60
2023-03-20T15:37:50.275Z,110.70
2023-03-20T15:41:29.693Z,111.40
2023-03-20T15:44:58.124Z,74.80
2023-03-20T15:48:26.635Z,80.70
2023-03-20T15:51:55.612Z,65.20
2023-03-20T15:55:25.482Z,67.30
2023-03-20T15:58:54.266Z,82.20
2023-03-20T16:02:22.008Z,55.30
2023-03-20T16:05:51.091Z,36.80
2023-03-20T16:09:19.061Z,32.30
2023-03-20T16:12:53.129Z,22.50
2023-03-20T16:16:23.943Z,17.30
2023-03-20T16:19:51.981Z,17.00
2023-03-20T16:23:29.028Z,16.70
2023-03-20T16:26:57.436Z,17.90
2023-03-20T16:30:27.768Z,75.00
2023-03-20T16:33:59.444Z,43.90
2023-03-20T16:37:29.449Z,32.00
2023-03-20T16:41:14.292Z,24.80
2023-03-20T16:44:43.773Z,29.10
2023-03-20T16:48:32.184Z,27.00
2023-03-20T16:52:02.635Z,21.50
2023-03-20T16:55:33.873Z,21.90
2023-03-20T16:59:07.322Z,20.10
2023-03-20T17:02:37.617Z,21.40
2023-03-20T17:06:11.449Z,22.60
2023-03-20T17:09:52.640Z,24.40
2023-03-20T17:13:19.740Z,25.20
2023-03-20T17:16:47.137Z,21.90
2023-03-20T17:20:21.906Z,20.00
2023-03-20T17:23:49.470Z,21.90
2023-03-20T17:27:21.531Z,21.20
2023-03-20T17:30:50.420Z,20.00
2023-03-20T17:34:17.716Z,19.50
2023-03-20T17:37:46.297Z,20.50
2023-03-20T17:41:17.900Z,19.90
2023-03-20T17:44:45.535Z,31.00
2023-03-20T17:48:22.776Z,40.10
2023-03-20T17:51:51.784Z,34.80
2023-03-20T17:55:19.563Z,27.70
2023-03-20T17:58:47.013Z,28.30
2023-03-20T18:02:15.524Z,73.20
2023-03-20T18:05:44.215Z,49.00
2023-03-20T18:09:14.837Z,44.70
2023-03-20T18:12:42.278Z,31.70
2023-03-20T18:16:18.770Z,23.00
2023-03-20T18:19:47.137Z,23.30
2023-03-20T18:23:15.080Z,30.20
2023-03-20T18:26:44.266Z,28.50
2023-03-20T18:30:18.339Z,32.40
2023-03-20T18:33:45.447Z,27.10
2023-03-20T18:37:15.573Z,42.90
2023-03-20T18:40:47.167Z,53.60
2023-03-20T18:44:14.528Z,54.00
2023-03-20T18:47:41.860Z,37.10
2023-03-20T18:51:09.168Z,29.70
2023-03-20T18:54:36.516Z,28.10
2023-03-20T18:58:06.345Z,25.40
2023-03-20T19:01:33.756Z,28.10
2023-03-20T19:05:00.976Z,31.60
2023-03-20T19:08:28.085Z,31.10
2023-03-20T19:11:55.661Z,31.30
2023-03-20T19:15:23.883Z,29.90
2023-03-20T19:18:51.212Z,29.80
2023-03-20T19:22:28.987Z,51.50
2023-03-20T19:25:58.161Z,65.60
2023-03-20T19:29:28.192Z,64.30
2023-03-20T19:32:58.188Z,60.80
2023-03-20T19:36:32.649Z,65.20
2023-03-20T19:40:03.780Z,62.00
2023-03-20T19:43:45.942Z,67.30
2023-03-20T19:47:22.213Z,49.20
2023-03-20T19:50:52.024Z,51.10
2023-03-20T19:54:20.137Z,48.00
2023-03-20T19:57:47.826Z,58.60
2023-03-20T20:01:19.323Z,51.70
2023-03-20T20:04:48.201Z,44.60
2023-03-20T20:08:29.032Z,49.50
2023-03-20T20:12:06.638Z,42.60
2023-03-20T20:15:38.788Z,40.20
2023-03-20T20:19:09.107Z,53.50
2023-03-20T20:22:36.475Z,59.50
2023-03-20T20:26:05.112Z,52.60
2023-03-20T20:29:32.227Z,47.30
2023-03-20T20:33:03.481Z,51.10
2023-03-20T20:37:25.999Z,63.00
2023-03-20T20:40:21.878Z,61.50
2023-03-20T20:44:14.668Z,62.20
2023-03-20T20:47:36.980Z,61.90
2023-03-20T20:51:04.542Z,66.90
2023-03-20T20:54:31.628Z,68.00
2023-03-20T20:58:01.636Z,55.90
2023-03-20T21:01:29.349Z,49.10
2023-03-20T21:04:56.967Z,49.60
2023-03-20T21:08:24.142Z,48.10
2023-03-20T21:11:51.197Z,49.40
2023-03-20T21:15:19.173Z,49.70
2023-03-20T21:18:46.259Z,57.30
2023-03-20T21:22:15.889Z,69.90
2023-03-20T21:25:46.532Z,71.30
2023-03-20T21:29:14.890Z,64.30
2023-03-20T21:32:42.029Z,97.50
2023-03-20T21:36:10.831Z,81.60
2023-03-20T21:39:38.522Z,59.00
2023-03-20T21:43:05.894Z,55.50
2023-03-20T21:51:09.796Z,52.60
2023-03-20T22:02:04.778Z,46.00
2023-03-20T22:10:05.697Z,37.90
2023-03-20T22:14:02.569Z,34.80
2023-03-20T22:17:51.056Z,34.00
2023-03-20T22:21:23.887Z,34.10
2023-03-20T22:28:56.763Z,34.10
2023-03-20T22:47:13.148Z,52.10
2023-03-20T22:50:40.768Z,51.40
2023-03-20T22:54:08.913Z,43.00
2023-03-20T22:57:45.701Z,39.90
2023-03-20T23:01:17.911Z,33.50
2023-03-20T23:04:45.199Z,33.10
2023-03-20T23:08:13.865Z,31.70
2023-03-20T23:11:42.896Z,28.30
2023-03-20T23:15:11.741Z,24.70
2023-03-20T23:18:38.822Z,24.70
2023-03-20T23:22:06.014Z,21.50
2023-03-20T23:25:39.311Z,21.40
2023-03-20T23:29:07.609Z,20.00
2023-03-20T23:32:37.542Z,18.90
2023-03-20T23:36:18.524Z,19.40
2023-03-20T23:39:48.676Z,18.60
2023-03-20T23:43:15.708Z,19.00
2023-03-20T23:46:42.978Z,20.00
2023-03-20T23:50:14.596Z,25.00
2023-03-20T23:53:44.424Z,30.10
2023-03-20T23:57:11.467Z,22.10
